Time;durP1;ratioP1;P1;durP2;ratioP2;P2;SDS_P1;SDS_P2;PMS_P1;PMS_P2;Temp;Humidity;BMP_temperature;BMP_pressure;BME280_temperature;BME280_humidity;BME280_pressure;Samples;Min_cycle;Max_cycle;Signal;HPM_P1;HPM_P2
2021/08/11 00:01:08;;;;;;;;;;;13.90;99.90;;;;;;5094120;28;20253;-82
2021/08/11 00:03:34;;;;;;;;;;;14.00;99.90;;;;;;5091346;28;20014;-82
2021/08/11 00:05:59;;;;;;;;;;;13.90;99.90;;;;;;5096210;28;20216;-81
2021/08/11 00:08:25;;;;;;;;;;;13.90;99.90;;;;;;5092106;28;19962;-81
2021/08/11 00:10:50;;;;;;;;;;;13.90;99.90;;;;;;5093282;28;19999;-81
2021/08/11 00:13:16;;;;;;;;;;;13.90;99.90;;;;;;5092852;28;19947;-81
2021/08/11 00:15:41;;;;;;;;;;;13.90;99.90;;;;;;5087439;28;19952;-81
2021/08/11 00:18:07;;;;;;;;;;;13.90;99.90;;;;;;5081170;28;19920;-80
2021/08/11 00:20:34;;;;;;;;;;;13.90;99.90;;;;;;5079329;28;19912;-80
2021/08/11 00:23:00;;;;;;;;;;;13.90;99.90;;;;;;5088531;28;19955;-81
2021/08/11 00:25:26;;;;;;;;;;;13.90;99.90;;;;;;5088750;28;19951;-82
2021/08/11 00:27:51;;;;;;;;;;;13.80;99.90;;;;;;5092981;28;19916;-81
2021/08/11 00:30:17;;;;;;;;;;;13.90;99.90;;;;;;5092213;28;19923;-81
2021/08/11 00:32:43;;;;;;;;;;;13.80;99.90;;;;;;5095926;28;19934;-81
2021/08/11 00:35:08;;;;;;;;;;;13.80;99.90;;;;;;5111353;28;19912;-82
2021/08/11 00:37:34;;;;;;;;;;;13.80;99.90;;;;;;5105079;28;19913;-82
2021/08/11 00:39:59;;;;;;;;;;;13.80;99.90;;;;;;5088889;28;20222;-82
2021/08/11 00:42:26;;;;;;;;;;;13.80;99.90;;;;;;5110626;28;19912;-83
2021/08/11 00:44:51;;;;;;;;;;;13.80;99.90;;;;;;5086039;28;19919;-82
2021/08/11 00:47:18;;;;;;;;;;;13.80;99.90;;;;;;5107583;28;19920;-82
2021/08/11 00:49:44;;;;;;;;;;;13.80;99.90;;;;;;5080030;28;19908;-82
2021/08/11 00:52:09;;;;;;;;;;;13.70;99.90;;;;;;5093238;28;20409;-82
2021/08/11 00:54:35;;;;;;;;;;;13.70;99.90;;;;;;5108892;28;19916;-82
2021/08/11 00:57:04;;;;;;;;;;;13.70;99.90;;;;;;5109862;28;19912;-83
2021/08/11 00:59:31;;;;;;;;;;;13.70;99.90;;;;;;5104455;28;19972;-83
2021/08/11 01:01:57;;;;;;;;;;;13.60;99.90;;;;;;5102973;28;19919;-82
2021/08/11 01:04:23;;;;;;;;;;;13.60;99.90;;;;;;5097687;28;19916;-82
2021/08/11 01:06:48;;;;;;;;;;;13.60;99.90;;;;;;5094013;28;20020;-81
2021/08/11 01:09:15;;;;;;;;;;;13.60;99.90;;;;;;5092574;28;20307;-80
2021/08/11 01:11:43;;;;;;;;;;;13.60;99.90;;;;;;5098851;28;19921;-81
2021/08/11 01:14:08;;;;;;;;;;;13.60;99.90;;;;;;5102103;28;20194;-82
2021/08/11 01:16:34;;;;;;;;;;;13.60;99.90;;;;;;5096500;28;19920;-81
2021/08/11 01:18:59;;;;;;;;;;;13.60;99.90;;;;;;5100375;28;19916;-81
2021/08/11 01:21:34;;;;;;;;;;;13.60;99.90;;;;;;5080980;28;19999;-81
2021/08/11 01:24:05;;;;;;;;;;;13.60;99.90;;;;;;5085199;28;20057;-83
2021/08/11 01:26:37;;;;;;;;;;;13.70;99.90;;;;;;5092163;28;19916;-82
2021/08/11 01:29:07;;;;;;;;;;;13.70;99.90;;;;;;5091869;28;19974;-81
2021/08/11 01:31:47;;;;;;;;;;;13.70;99.90;;;;;;5093828;28;20330;-80
2021/08/11 01:34:23;;;;;;;;;;;13.70;99.90;;;;;;5093990;28;20214;-82
2021/08/11 01:36:52;;;;;;;;;;;13.70;99.90;;;;;;5086587;28;19954;-81
2021/08/11 01:39:23;;;;;;;;;;;13.70;99.90;;;;;;5086899;28;20011;-81
2021/08/11 01:41:52;;;;;;;;;;;13.70;99.90;;;;;;5112319;28;19924;-81
2021/08/11 01:44:20;;;;;;;;;;;13.70;99.90;;;;;;5091499;28;19916;-80
2021/08/11 01:46:46;;;;;;;;;;;13.70;99.90;;;;;;5087715;28;19923;-81
2021/08/11 01:49:12;;;;;;;;;;;13.70;99.90;;;;;;5082875;28;19912;-81
2021/08/11 01:51:40;;;;;;;;;;;13.70;99.90;;;;;;5096401;28;20287;-79
2021/08/11 01:54:07;;;;;;;;;;;13.60;99.90;;;;;;5087946;28;19917;-81
2021/08/11 01:56:33;;;;;;;;;;;13.60;99.90;;;;;;5092918;28;20265;-81
2021/08/11 01:59:00;;;;;;;;;;;13.60;99.90;;;;;;5095136;28;20037;-81
2021/08/11 02:01:26;;;;;;;;;;;13.60;99.90;;;;;;5097400;28;20036;-80
2021/08/11 02:03:51;;;;;;;;;;;13.60;99.90;;;;;;5090970;28;20306;-80
2021/08/11 02:06:17;;;;;;;;;;;13.60;99.90;;;;;;5096813;28;19915;-82
2021/08/11 02:08:44;;;;;;;;;;;13.60;99.90;;;;;;5096864;28;19912;-82
2021/08/11 02:11:11;;;;;;;;;;;13.70;99.90;;;;;;5095821;28;20003;-81
2021/08/11 02:13:37;;;;;;;;;;;13.70;99.90;;;;;;5094832;28;19920;-81
2021/08/11 02:16:02;;;;;;;;;;;13.70;99.90;;;;;;5093362;28;20313;-81
2021/08/11 02:18:28;;;;;;;;;;;13.70;99.90;;;;;;5089871;28;20222;-81
2021/08/11 02:20:53;;;;;;;;;;;13.70;99.90;;;;;;5082472;28;20006;-81
2021/08/11 02:23:19;;;;;;;;;;;13.70;99.90;;;;;;5086337;28;19908;-80
2021/08/11 02:25:55;;;;;;;;;;;13.70;99.90;;;;;;5087299;28;20350;-82
2021/08/11 02:28:47;;;;;;;;;;;13.80;99.90;;;;;;5083187;28;19919;-81
2021/08/11 02:31:20;;;;;;;;;;;13.80;99.90;;;;;;5084251;28;19954;-82
2021/08/11 02:33:55;;;;;;;;;;;13.80;99.90;;;;;;5089089;28;20203;-82
2021/08/11 02:36:23;;;;;;;;;;;13.70;99.90;;;;;;5095807;28;19912;-80
2021/08/11 02:38:51;;;;;;;;;;;13.70;99.90;;;;;;5094632;28;19919;-83
2021/08/11 02:41:19;;;;;;;;;;;13.70;99.90;;;;;;5095529;28;19916;-79
2021/08/11 02:43:54;;;;;;;;;;;13.70;99.90;;;;;;5099398;28;19916;-82
2021/08/11 02:46:26;;;;;;;;;;;13.70;99.90;;;;;;5095009;28;19912;-80
2021/08/11 02:49:06;;;;;;;;;;;13.70;99.90;;;;;;5088860;28;19912;-81
2021/08/11 02:51:33;;;;;;;;;;;13.70;99.90;;;;;;5087014;28;19985;-80
2021/08/11 02:54:05;;;;;;;;;;;13.70;99.90;;;;;;5092658;28;19916;-82
2021/08/11 02:56:31;;;;;;;;;;;13.70;99.90;;;;;;5091764;28;19908;-82
2021/08/11 02:58:57;;;;;;;;;;;13.70;99.90;;;;;;5091793;28;19989;-80
2021/08/11 03:01:25;;;;;;;;;;;13.70;99.90;;;;;;5111007;28;20320;-82
2021/08/11 03:03:51;;;;;;;;;;;13.70;99.90;;;;;;5093561;28;19916;-80
2021/08/11 03:06:16;;;;;;;;;;;13.70;99.90;;;;;;5083061;28;19919;-81
2021/08/11 03:08:42;;;;;;;;;;;13.70;99.90;;;;;;5094797;28;19919;-79
2021/08/11 03:11:11;;;;;;;;;;;13.70;99.90;;;;;;5088875;28;19999;-81
2021/08/11 03:13:41;;;;;;;;;;;13.70;99.90;;;;;;5085462;28;19917;-80
2021/08/11 03:16:08;;;;;;;;;;;13.70;99.90;;;;;;5095698;28;20012;-79
2021/08/11 03:18:34;;;;;;;;;;;13.70;99.90;;;;;;5105754;28;19912;-81
2021/08/11 03:20:59;;;;;;;;;;;13.70;99.90;;;;;;5095265;28;19915;-80
2021/08/11 03:23:25;;;;;;;;;;;13.80;99.90;;;;;;5096505;28;19919;-81
2021/08/11 03:25:50;;;;;;;;;;;13.70;99.90;;;;;;5095925;28;19916;-81
2021/08/11 03:28:16;;;;;;;;;;;13.70;99.90;;;;;;5087522;28;19923;-81
2021/08/11 03:30:42;;;;;;;;;;;13.70;99.90;;;;;;5095469;28;19915;-79
2021/08/11 03:33:08;;;;;;;;;;;13.60;99.90;;;;;;5094243;28;20030;-83
2021/08/11 03:35:33;;;;;;;;;;;13.60;99.90;;;;;;5084354;28;20015;-83
2021/08/11 03:37:59;;;;;;;;;;;13.50;99.90;;;;;;5084054;28;19920;-82
2021/08/11 03:40:24;;;;;;;;;;;13.40;99.90;;;;;;5087805;28;19919;-82
2021/08/11 03:42:50;;;;;;;;;;;13.30;99.90;;;;;;5089244;28;20364;-81
2021/08/11 03:45:16;;;;;;;;;;;13.30;99.90;;;;;;5093373;28;19962;-82
2021/08/11 03:47:41;;;;;;;;;;;13.20;99.90;;;;;;5087994;28;20032;-82
2021/08/11 03:50:09;;;;;;;;;;;13.20;99.90;;;;;;5082630;28;19927;-82
2021/08/11 03:52:34;;;;;;;;;;;13.20;99.90;;;;;;5088124;28;19916;-83
2021/08/11 03:55:00;;;;;;;;;;;13.20;99.90;;;;;;5095301;28;19912;-82
2021/08/11 03:57:25;;;;;;;;;;;13.20;99.90;;;;;;5094234;28;19908;-83
2021/08/11 03:59:51;;;;;;;;;;;13.20;99.90;;;;;;5086211;28;19908;-81
2021/08/11 04:02:16;;;;;;;;;;;13.20;99.90;;;;;;5090605;28;19922;-82
2021/08/11 04:04:42;;;;;;;;;;;13.20;99.90;;;;;;5094333;28;19923;-81
2021/08/11 04:07:07;;;;;;;;;;;13.30;99.90;;;;;;5107434;28;19912;-83
2021/08/11 04:09:33;;;;;;;;;;;13.20;99.90;;;;;;5085932;28;19916;-81
2021/08/11 04:11:58;;;;;;;;;;;13.20;99.90;;;;;;5095483;28;21503;-80
2021/08/11 04:14:24;;;;;;;;;;;13.30;99.90;;;;;;5109370;28;19912;-81
2021/08/11 04:16:50;;;;;;;;;;;13.30;99.90;;;;;;5094561;28;20330;-82
2021/08/11 04:19:15;;;;;;;;;;;13.30;99.90;;;;;;5091349;28;20017;-84
2021/08/11 04:21:41;;;;;;;;;;;13.30;99.90;;;;;;5093331;28;19918;-81
2021/08/11 04:24:06;;;;;;;;;;;13.30;99.90;;;;;;5095574;28;20302;-81
2021/08/11 04:26:32;;;;;;;;;;;13.30;99.90;;;;;;5092433;28;19916;-82
2021/08/11 04:28:57;;;;;;;;;;;13.30;99.90;;;;;;5095150;28;20002;-80
2021/08/11 04:31:23;;;;;;;;;;;13.30;99.90;;;;;;5089686;28;19927;-82
2021/08/11 04:33:49;;;;;;;;;;;13.40;99.90;;;;;;5091419;28;20307;-80
2021/08/11 04:36:14;;;;;;;;;;;13.40;99.90;;;;;;5095277;28;19920;-82
2021/08/11 04:38:40;;;;;;;;;;;13.40;99.90;;;;;;5092787;28;19954;-82
2021/08/11 04:41:05;;;;;;;;;;;13.50;99.90;;;;;;5093942;28;19912;-82
2021/08/11 04:43:31;;;;;;;;;;;13.50;99.90;;;;;;5089563;28;19912;-83
2021/08/11 04:45:56;;;;;;;;;;;13.50;99.90;;;;;;5097771;28;20010;-83
2021/08/11 04:48:22;;;;;;;;;;;13.60;99.90;;;;;;5094993;28;19923;-82
2021/08/11 04:50:47;;;;;;;;;;;13.60;99.90;;;;;;5101940;28;19955;-83
2021/08/11 04:53:13;;;;;;;;;;;13.70;99.90;;;;;;5112228;28;19919;-81
2021/08/11 04:55:39;;;;;;;;;;;13.80;99.90;;;;;;5102153;28;19916;-83
2021/08/11 04:58:04;;;;;;;;;;;13.90;99.90;;;;;;5094813;28;20041;-82
2021/08/11 05:00:30;;;;;;;;;;;14.00;99.90;;;;;;5101773;28;19948;-82
2021/08/11 05:02:55;;;;;;;;;;;14.10;99.90;;;;;;5105436;28;19920;-82
2021/08/11 05:05:22;;;;;;;;;;;14.10;99.90;;;;;;5095797;28;19923;-83
2021/08/11 05:07:48;;;;;;;;;;;14.20;99.90;;;;;;5098830;28;19912;-82
2021/08/11 05:10:16;;;;;;;;;;;14.30;99.90;;;;;;5085878;28;19918;-81
2021/08/11 05:12:41;;;;;;;;;;;14.30;99.90;;;;;;5085970;28;20362;-81
2021/08/11 05:15:07;;;;;;;;;;;14.40;99.90;;;;;;5083925;28;19916;-81
2021/08/11 05:17:34;;;;;;;;;;;14.50;99.90;;;;;;5084861;28;19921;-82
2021/08/11 05:19:59;;;;;;;;;;;14.60;99.90;;;;;;5082668;28;20334;-84
2021/08/11 05:22:25;;;;;;;;;;;14.60;99.90;;;;;;5083826;28;19999;-82
2021/08/11 05:24:50;;;;;;;;;;;14.70;99.90;;;;;;5083448;28;19916;-81
2021/08/11 05:27:16;;;;;;;;;;;14.70;99.90;;;;;;5089259;28;19947;-81
2021/08/11 05:29:44;;;;;;;;;;;14.70;99.90;;;;;;5090152;28;19923;-82
2021/08/11 05:32:10;;;;;;;;;;;14.70;99.90;;;;;;5086068;28;20014;-82
2021/08/11 05:34:36;;;;;;;;;;;14.80;99.90;;;;;;5087000;28;19916;-80
2021/08/11 05:37:01;;;;;;;;;;;14.80;99.90;;;;;;5089546;28;19923;-81
2021/08/11 05:39:27;;;;;;;;;;;14.90;99.90;;;;;;5091590;28;19920;-83
2021/08/11 05:41:53;;;;;;;;;;;14.90;99.90;;;;;;5089151;28;19912;-83
2021/08/11 05:44:19;;;;;;;;;;;15.00;99.90;;;;;;5088439;28;20053;-82
2021/08/11 05:46:44;;;;;;;;;;;15.10;99.90;;;;;;5088143;28;19921;-81
2021/08/11 05:49:11;;;;;;;;;;;15.10;99.90;;;;;;5092774;28;19916;-82
2021/08/11 05:51:37;;;;;;;;;;;15.30;99.90;;;;;;5086639;28;20005;-82
2021/08/11 05:54:04;;;;;;;;;;;15.30;99.90;;;;;;5085631;28;20046;-81
2021/08/11 05:56:29;;;;;;;;;;;15.40;99.90;;;;;;5086195;28;19919;-81
2021/08/11 05:58:55;;;;;;;;;;;15.50;99.90;;;;;;5086941;28;19916;-82
2021/08/11 06:01:21;;;;;;;;;;;15.50;99.90;;;;;;5090339;28;19919;-81
2021/08/11 06:03:47;;;;;;;;;;;15.60;99.90;;;;;;5089149;28;19920;-80
2021/08/11 06:06:14;;;;;;;;;;;15.60;99.90;;;;;;5090176;28;19912;-81
2021/08/11 06:08:39;;;;;;;;;;;15.70;99.90;;;;;;5087701;28;19913;-82
2021/08/11 06:11:05;;;;;;;;;;;15.70;99.90;;;;;;5111368;27;20347;-81
2021/08/11 06:13:31;;;;;;;;;;;15.70;99.90;;;;;;5087623;28;20011;-81
2021/08/11 06:15:56;;;;;;;;;;;15.80;99.90;;;;;;5083779;28;19950;-81
2021/08/11 06:18:22;;;;;;;;;;;15.90;99.90;;;;;;5092907;28;20002;-80
2021/08/11 06:20:51;;;;;;;;;;;15.90;99.90;;;;;;5088167;28;19920;-82
2021/08/11 06:23:17;;;;;;;;;;;16.00;99.90;;;;;;5083509;28;20325;-80
2021/08/11 06:25:43;;;;;;;;;;;16.00;99.90;;;;;;5086591;28;19916;-81
2021/08/11 06:28:08;;;;;;;;;;;16.10;99.90;;;;;;5085206;28;20037;-81
2021/08/11 06:30:34;;;;;;;;;;;16.10;99.90;;;;;;5083939;28;19913;-81
2021/08/11 06:32:59;;;;;;;;;;;16.20;99.90;;;;;;5085574;28;19916;-80
2021/08/11 06:35:25;;;;;;;;;;;16.20;99.90;;;;;;5089451;28;19913;-81
2021/08/11 06:37:51;;;;;;;;;;;16.30;99.90;;;;;;5086589;28;19973;-81
2021/08/11 06:40:17;;;;;;;;;;;16.30;99.90;;;;;;5084809;28;19923;-82
2021/08/11 06:42:43;;;;;;;;;;;16.30;99.90;;;;;;5085849;28;19912;-82
2021/08/11 06:45:08;;;;;;;;;;;16.40;99.90;;;;;;5087296;28;19931;-82
2021/08/11 06:47:36;;;;;;;;;;;16.50;99.90;;;;;;5087792;28;19966;-81
2021/08/11 06:50:02;;;;;;;;;;;16.50;99.90;;;;;;5086004;28;19923;-82
2021/08/11 06:52:32;;;;;;;;;;;16.50;99.90;;;;;;5088160;28;19973;-80
2021/08/11 06:54:58;;;;;;;;;;;16.60;99.90;;;;;;5085498;28;19916;-82
2021/08/11 06:57:24;;;;;;;;;;;16.60;99.90;;;;;;5093609;28;19912;-81
2021/08/11 06:59:49;;;;;;;;;;;16.60;99.90;;;;;;5089870;28;19965;-81
2021/08/11 07:02:15;;;;;;;;;;;16.70;99.90;;;;;;5084613;28;19919;-81
2021/08/11 07:04:41;;;;;;;;;;;16.80;99.90;;;;;;5083850;28;19921;-81
2021/08/11 07:07:06;;;;;;;;;;;16.80;99.90;;;;;;5087054;28;20192;-82
2021/08/11 07:09:32;;;;;;;;;;;16.90;99.90;;;;;;5085327;28;19916;-82
2021/08/11 07:11:57;;;;;;;;;;;17.10;99.90;;;;;;5090260;28;19955;-81
2021/08/11 07:14:23;;;;;;;;;;;17.20;99.90;;;;;;5085487;28;19916;-81
2021/08/11 07:16:48;;;;;;;;;;;17.30;99.90;;;;;;5088793;28;20324;-82
2021/08/11 07:19:14;;;;;;;;;;;17.50;99.90;;;;;;5089769;28;19935;-83
2021/08/11 07:21:39;;;;;;;;;;;17.60;99.90;;;;;;5097193;28;19911;-80
2021/08/11 07:24:05;;;;;;;;;;;17.70;99.90;;;;;;5097391;28;19923;-83
2021/08/11 07:26:31;;;;;;;;;;;17.90;99.90;;;;;;5089574;28;19927;-83
2021/08/11 07:28:56;;;;;;;;;;;17.90;99.90;;;;;;5088380;28;19944;-81
2021/08/11 07:31:22;;;;;;;;;;;18.10;99.90;;;;;;5094538;28;19972;-83
2021/08/11 07:33:47;;;;;;;;;;;18.30;99.90;;;;;;5094506;28;19912;-81
2021/08/11 07:36:13;;;;;;;;;;;18.40;99.90;;;;;;5087719;28;19917;-81
2021/08/11 07:38:38;;;;;;;;;;;18.50;99.90;;;;;;5091529;28;19964;-82
2021/08/11 07:41:04;;;;;;;;;;;18.70;99.90;;;;;;5100544;28;20214;-81
2021/08/11 07:43:30;;;;;;;;;;;18.80;99.90;;;;;;5100287;28;20215;-81
2021/08/11 07:45:55;;;;;;;;;;;18.90;99.90;;;;;;5103332;28;20368;-79
2021/08/11 07:48:21;;;;;;;;;;;19.00;99.90;;;;;;5096484;28;20011;-82
2021/08/11 07:50:46;;;;;;;;;;;19.10;99.90;;;;;;5088937;28;19920;-81
2021/08/11 07:53:12;;;;;;;;;;;19.20;99.90;;;;;;5093661;28;19912;-81
2021/08/11 07:55:38;;;;;;;;;;;19.20;99.90;;;;;;5092390;28;19938;-83
2021/08/11 07:58:03;;;;;;;;;;;19.30;99.90;;;;;;5093509;28;20668;-81
2021/08/11 08:00:29;;;;;;;;;;;19.40;99.90;;;;;;5085662;28;19923;-82
2021/08/11 08:02:54;;;;;;;;;;;19.50;99.90;;;;;;5105662;28;20007;-83
2021/08/11 08:05:20;;;;;;;;;;;19.60;99.90;;;;;;5095982;28;19919;-82
2021/08/11 08:07:46;;;;;;;;;;;19.60;99.90;;;;;;5095294;28;19915;-81
2021/08/11 08:10:12;;;;;;;;;;;19.80;99.90;;;;;;5094274;28;19966;-84
2021/08/11 08:12:43;;;;;;;;;;;19.90;99.90;;;;;;5094167;28;20509;-84
2021/08/11 08:15:09;;;;;;;;;;;20.00;99.90;;;;;;5102763;28;20002;-83
2021/08/11 08:17:34;;;;;;;;;;;20.00;99.90;;;;;;5091721;28;19982;-83
2021/08/11 08:20:00;;;;;;;;;;;19.90;99.90;;;;;;5098032;28;19916;-86
2021/08/11 08:22:26;;;;;;;;;;;19.90;99.90;;;;;;5087909;28;19981;-84
2021/08/11 08:24:55;;;;;;;;;;;19.70;99.90;;;;;;5088089;28;19920;-84
2021/08/11 08:27:21;;;;;;;;;;;19.80;99.90;;;;;;5084599;28;20215;-83
2021/08/11 08:29:47;;;;;;;;;;;20.00;99.90;;;;;;5073862;28;19916;-82
2021/08/11 08:32:13;;;;;;;;;;;20.20;99.90;;;;;;5085352;28;19990;-84
2021/08/11 08:34:38;;;;;;;;;;;20.40;99.90;;;;;;5103501;28;19951;-85
2021/08/11 08:37:04;;;;;;;;;;;20.70;99.90;;;;;;5090254;28;19920;-85
2021/08/11 08:39:29;;;;;;;;;;;20.80;99.90;;;;;;5106593;28;19925;-82
2021/08/11 08:41:55;;;;;;;;;;;20.90;99.90;;;;;;5095761;28;20314;-85
2021/08/11 08:44:21;;;;;;;;;;;21.00;99.90;;;;;;5097749;28;20022;-85
2021/08/11 08:46:47;;;;;;;;;;;21.00;99.90;;;;;;5088921;28;19917;-86
2021/08/11 08:49:15;;;;;;;;;;;21.20;99.90;;;;;;5095430;28;19948;-86
2021/08/11 08:51:44;;;;;;;;;;;21.40;99.90;;;;;;5093128;28;19999;-85
2021/08/11 08:54:15;;;;;;;;;;;21.50;99.90;;;;;;5102469;28;19956;-85
2021/08/11 08:56:41;;;;;;;;;;;21.70;99.90;;;;;;5095363;28;19923;-83
2021/08/11 08:59:06;;;;;;;;;;;21.90;99.90;;;;;;5090426;28;19916;-83
2021/08/11 09:01:33;;;;;;;;;;;21.90;99.90;;;;;;5090144;28;19912;-84
2021/08/11 09:03:58;;;;;;;;;;;22.10;99.90;;;;;;5094757;28;19924;-84
2021/08/11 09:06:24;;;;;;;;;;;22.30;99.90;;;;;;5081873;28;20319;-82
2021/08/11 09:08:56;;;;;;;;;;;22.50;99.90;;;;;;5082368;28;19920;-84
2021/08/11 09:11:22;;;;;;;;;;;22.60;99.90;;;;;;5109739;28;19923;-84
2021/08/11 09:14:07;;;;;;;;;;;22.70;99.90;;;;;;5089266;28;19913;-84
2021/08/11 09:16:33;;;;;;;;;;;22.70;99.90;;;;;;5085085;28;19920;-85
2021/08/11 09:18:59;;;;;;;;;;;22.80;99.90;;;;;;5103222;28;20215;-84
2021/08/11 09:21:24;;;;;;;;;;;22.90;99.90;;;;;;5090974;28;19912;-86
2021/08/11 09:23:50;;;;;;;;;;;22.80;99.90;;;;;;5089967;28;20230;-83
2021/08/11 09:26:16;;;;;;;;;;;22.70;99.90;;;;;;5087682;28;19920;-84
2021/08/11 09:28:43;;;;;;;;;;;22.70;99.90;;;;;;5090131;28;20314;-85
2021/08/11 09:31:28;;;;;;;;;;;22.60;99.90;;;;;;5075530;28;19942;-85
2021/08/11 09:33:55;;;;;;;;;;;22.60;99.90;;;;;;5093449;28;19928;-85
2021/08/11 09:36:21;;;;;;;;;;;22.70;99.90;;;;;;5087641;28;19920;-81
2021/08/11 09:39:13;;;;;;;;;;;22.80;99.90;;;;;;5093968;28;19916;-84
2021/08/11 09:41:58;;;;;;;;;;;22.90;99.90;;;;;;5096709;28;19920;-86
2021/08/11 09:44:24;;;;;;;;;;;23.10;99.90;;;;;;5084273;28;20453;-82
2021/08/11 09:46:50;;;;;;;;;;;23.20;99.90;;;;;;5087612;28;20007;-85
2021/08/11 09:49:17;;;;;;;;;;;23.20;99.90;;;;;;5087727;28;19917;-84
2021/08/11 09:52:01;;;;;;;;;;;23.30;99.90;;;;;;5086130;28;19916;-84
2021/08/11 09:54:29;;;;;;;;;;;23.40;99.90;;;;;;5100796;28;20326;-85
2021/08/11 09:56:55;;;;;;;;;;;23.50;99.90;;;;;;5108006;28;19912;-86
2021/08/11 09:59:21;;;;;;;;;;;23.50;99.90;;;;;;5103794;28;20290;-84
2021/08/11 10:01:47;;;;;;;;;;;23.50;99.90;;;;;;5106985;28;19908;-84
2021/08/11 10:04:14;;;;;;;;;;;23.60;99.90;;;;;;5105066;28;19920;-86
2021/08/11 10:06:42;;;;;;;;;;;23.60;99.90;;;;;;5101252;28;20006;-85
2021/08/11 10:09:19;;;;;;;;;;;23.50;99.90;;;;;;5102426;28;19944;-89
2021/08/11 10:11:50;;;;;;;;;;;23.40;99.90;;;;;;5098021;28;19908;-85
2021/08/11 10:14:16;;;;;;;;;;;23.30;99.90;;;;;;5107507;28;19944;-83
2021/08/11 10:16:42;;;;;;;;;;;23.30;99.90;;;;;;5105035;28;19912;-83
2021/08/11 10:19:10;;;;;;;;;;;23.40;99.90;;;;;;5105745;28;19925;-86
2021/08/11 10:21:58;;;;;;;;;;;23.40;99.90;;;;;;5115104;28;20222;-86
2021/08/11 10:24:24;;;;;;;;;;;23.40;99.90;;;;;;5090833;28;19916;-83
2021/08/11 10:26:52;;;;;;;;;;;23.40;99.90;;;;;;5095982;28;20006;-88
2021/08/11 10:29:18;;;;;;;;;;;23.40;99.90;;;;;;5103207;28;19923;-89
2021/08/11 10:31:44;;;;;;;;;;;23.20;99.90;;;;;;5094558;28;19930;-88
2021/08/11 10:34:13;;;;;;;;;;;23.00;99.90;;;;;;5098580;28;19916;-86
2021/08/11 10:36:42;;;;;;;;;;;22.90;99.90;;;;;;5098620;28;19915;-85
2021/08/11 10:39:07;;;;;;;;;;;22.90;99.90;;;;;;5105697;28;19916;-87
2021/08/11 10:41:34;;;;;;;;;;;22.90;99.90;;;;;;5097365;28;19911;-86
2021/08/11 10:44:01;;;;;;;;;;;23.00;99.90;;;;;;5104819;28;20223;-84
2021/08/11 10:46:31;;;;;;;;;;;23.10;99.90;;;;;;5093435;28;19908;-82
2021/08/11 10:49:04;;;;;;;;;;;23.20;99.90;;;;;;5093441;28;20237;-83
2021/08/11 10:51:35;;;;;;;;;;;23.20;99.90;;;;;;5089341;28;19915;-83
2021/08/11 10:54:02;;;;;;;;;;;23.30;99.90;;;;;;5094137;28;20260;-86
2021/08/11 10:56:47;;;;;;;;;;;23.40;99.90;;;;;;5090988;28;19912;-82
2021/08/11 10:59:22;;;;;;;;;;;23.40;99.90;;;;;;5093689;28;19912;-86
2021/08/11 11:01:51;;;;;;;;;;;23.40;99.90;;;;;;5092010;28;20326;-88
2021/08/11 11:04:55;;;;;;;;;;;23.40;99.90;;;;;;5102036;28;20022;-79
2021/08/11 11:07:21;;;;;;;;;;;23.30;99.90;;;;;;5016420;28;19921;-86
2021/08/11 11:09:47;;;;;;;;;;;23.30;99.90;;;;;;5030481;28;19914;-85
2021/08/11 11:12:15;;;;;;;;;;;23.40;99.90;;;;;;5030821;28;20252;-84
2021/08/11 11:14:44;;;;;;;;;;;23.50;99.90;;;;;;5034875;28;19913;-82
2021/08/11 11:17:11;;;;;;;;;;;23.50;99.90;;;;;;5032487;28;20012;-86
2021/08/11 11:19:55;;;;;;;;;;;23.70;99.90;;;;;;5013760;28;20000;-81
2021/08/11 11:22:36;;;;;;;;;;;23.60;99.90;;;;;;5030435;28;20223;-85
2021/08/11 11:25:03;;;;;;;;;;;23.80;99.90;;;;;;5034157;28;19917;-85
2021/08/11 11:27:38;;;;;;;;;;;23.90;99.90;;;;;;5015152;28;19910;-85
2021/08/11 11:30:08;;;;;;;;;;;24.10;99.90;;;;;;5034165;28;19919;-86
2021/08/11 11:32:34;;;;;;;;;;;24.10;99.90;;;;;;5010878;28;20016;-85
2021/08/11 11:35:15;;;;;;;;;;;24.10;99.90;;;;;;5033579;28;20006;-84
2021/08/11 11:37:41;;;;;;;;;;;24.20;99.90;;;;;;5029146;28;19913;-87
2021/08/11 11:40:07;;;;;;;;;;;24.10;99.90;;;;;;5063049;28;19935;-86
2021/08/11 11:42:33;;;;;;;;;;;24.20;99.90;;;;;;5068109;28;19912;-85
2021/08/11 11:44:58;;;;;;;;;;;24.30;99.90;;;;;;5076322;28;19960;-84
2021/08/11 11:47:44;;;;;;;;;;;24.30;99.90;;;;;;5082827;28;20265;-81
2021/08/11 11:50:25;;;;;;;;;;;24.30;99.90;;;;;;5072231;28;20561;-80
2021/08/11 11:52:54;;;;;;;;;;;24.50;99.90;;;;;;5073405;28;19912;-86
2021/08/11 11:55:27;;;;;;;;;;;24.50;99.90;;;;;;5069599;28;20304;-87
2021/08/11 11:57:53;;;;;;;;;;;24.60;99.90;;;;;;5073293;28;19919;-87
2021/08/11 12:00:19;;;;;;;;;;;24.60;99.90;;;;;;5074086;28;19921;-87
2021/08/11 12:02:48;;;;;;;;;;;24.60;99.90;;;;;;5075635;28;19913;-88
2021/08/11 12:05:14;;;;;;;;;;;24.70;99.90;;;;;;5066470;28;20025;-88
2021/08/11 12:07:39;;;;;;;;;;;24.70;99.90;;;;;;5074276;28;19956;-88
2021/08/11 12:10:05;;;;;;;;;;;24.70;99.90;;;;;;5077336;28;20223;-89
2021/08/11 12:12:31;;;;;;;;;;;24.70;99.90;;;;;;5074708;28;19913;-89
2021/08/11 12:15:17;;;;;;;;;;;24.70;99.90;;;;;;5088431;28;20238;-86
2021/08/11 12:17:43;;;;;;;;;;;24.70;99.90;;;;;;5072064;28;19918;-90
2021/08/11 12:20:28;;;;;;;;;;;24.80;99.90;;;;;;5076476;28;19908;-87
2021/08/11 12:22:55;;;;;;;;;;;24.70;99.90;;;;;;5076184;28;19916;-88
2021/08/11 12:25:21;;;;;;;;;;;24.80;99.90;;;;;;5070875;28;19923;-89
2021/08/11 12:28:06;;;;;;;;;;;24.70;99.90;;;;;;5068805;28;20041;-89
2021/08/11 12:30:32;;;;;;;;;;;24.60;99.90;;;;;;5055294;28;19948;-83
2021/08/11 12:32:58;;;;;;;;;;;24.50;99.90;;;;;;5090984;28;20313;-82
2021/08/11 12:35:23;;;;;;;;;;;24.50;99.90;;;;;;5094813;28;19909;-87
2021/08/11 12:37:49;;;;;;;;;;;24.50;99.90;;;;;;5085601;28;20322;-86
2021/08/11 12:40:31;;;;;;;;;;;24.50;99.90;;;;;;5093977;28;19912;-83
2021/08/11 12:42:58;;;;;;;;;;;24.40;99.90;;;;;;5096490;28;19908;-87
2021/08/11 12:45:23;;;;;;;;;;;24.40;99.90;;;;;;5114042;27;19913;-87
2021/08/11 12:47:49;;;;;;;;;;;24.40;99.90;;;;;;5083115;28;19909;-88
2021/08/11 12:50:16;;;;;;;;;;;24.40;99.90;;;;;;5089405;28;19909;-93
2021/08/11 12:52:51;;;;;;;;;;;24.30;99.90;;;;;;5094126;28;20261;-90
2021/08/11 12:55:29;;;;;;;;;;;24.00;99.90;;;;;;5093385;28;19912;-87
2021/08/11 12:57:54;;;;;;;;;;;23.90;99.90;;;;;;5095424;28;19908;-92
2021/08/11 13:00:37;;;;;;;;;;;23.90;99.90;;;;;;5095523;28;19920;-91
2021/08/11 13:03:03;;;;;;;;;;;24.00;99.90;;;;;;5082651;28;19977;-89
2021/08/11 13:05:28;;;;;;;;;;;24.00;99.90;;;;;;5095621;28;20215;-89
2021/08/11 13:07:56;;;;;;;;;;;24.10;99.90;;;;;;5094708;28;19916;-85
2021/08/11 13:10:22;;;;;;;;;;;24.30;99.90;;;;;;5096523;28;19958;-88
2021/08/11 13:12:48;;;;;;;;;;;24.30;99.90;;;;;;5093105;28;19908;-88
2021/08/11 13:15:19;;;;;;;;;;;24.30;99.90;;;;;;5091349;28;19919;-87
2021/08/11 13:17:51;;;;;;;;;;;24.40;99.90;;;;;;5087720;28;20330;-90
2021/08/11 13:20:18;;;;;;;;;;;24.50;99.90;;;;;;5090507;28;21191;-86
2021/08/11 13:22:48;;;;;;;;;;;24.50;99.90;;;;;;5093583;28;20217;-89
2021/08/11 13:25:13;;;;;;;;;;;24.40;99.90;;;;;;5093682;28;19969;-88
2021/08/11 13:27:39;;;;;;;;;;;24.30;99.90;;;;;;5105015;28;19912;-89
2021/08/11 13:30:05;;;;;;;;;;;24.20;99.90;;;;;;5109356;28;20000;-88
2021/08/11 13:32:32;;;;;;;;;;;24.10;99.90;;;;;;5105495;28;20350;-87
2021/08/11 13:34:58;;;;;;;;;;;24.10;99.90;;;;;;5103392;28;19924;-88
2021/08/11 13:37:23;;;;;;;;;;;24.10;99.90;;;;;;5085906;28;19912;-88
2021/08/11 13:39:49;;;;;;;;;;;24.10;99.90;;;;;;5092089;28;19918;-84
2021/08/11 13:42:15;;;;;;;;;;;24.10;99.90;;;;;;5085612;28;19916;-89
2021/08/11 13:44:40;;;;;;;;;;;24.10;99.90;;;;;;5095989;28;20010;-87
2021/08/11 13:47:06;;;;;;;;;;;24.10;99.90;;;;;;5091728;28;19912;-80
2021/08/11 13:49:31;;;;;;;;;;;24.10;99.90;;;;;;5102498;28;19923;-88
2021/08/11 13:51:57;;;;;;;;;;;24.20;99.90;;;;;;5086191;28;19912;-90
2021/08/11 13:54:23;;;;;;;;;;;24.30;99.90;;;;;;5100356;28;19916;-87
2021/08/11 13:56:51;;;;;;;;;;;24.30;99.90;;;;;;5094624;28;20362;-87
2021/08/11 13:59:18;;;;;;;;;;;24.30;99.90;;;;;;5098323;28;19989;-86
2021/08/11 14:01:43;;;;;;;;;;;24.30;99.90;;;;;;5093517;28;19912;-89
2021/08/11 14:04:09;;;;;;;;;;;24.40;99.90;;;;;;5088458;28;19923;-85
2021/08/11 14:06:35;;;;;;;;;;;24.40;99.90;;;;;;5093675;28;19912;-86
2021/08/11 14:09:00;;;;;;;;;;;24.40;99.90;;;;;;5085597;28;19920;-87
2021/08/11 14:11:26;;;;;;;;;;;24.40;99.90;;;;;;5087937;28;19912;-87
2021/08/11 14:13:51;;;;;;;;;;;24.40;99.90;;;;;;5090111;28;19920;-86
2021/08/11 14:16:17;;;;;;;;;;;24.40;99.90;;;;;;5093397;28;19912;-77
2021/08/11 14:18:42;;;;;;;;;;;24.30;99.90;;;;;;5086362;28;20003;-85